createdAt,value
2022-11-09T00:04:31.517Z,97790.94
2022-11-09T00:09:35.703Z,97786.41
2022-11-09T00:14:38.791Z,97801.97
2022-11-09T00:19:41.615Z,97822.22
2022-11-09T00:24:45.690Z,97814.09
2022-11-09T00:29:48.491Z,97818.06
2022-11-09T00:34:54.126Z,97820.06
2022-11-09T00:39:59.478Z,97807.00
2022-11-09T00:45:03.114Z,97803.75
2022-11-09T00:50:06.718Z,97804.25
2022-11-09T00:55:11.084Z,97800.22
2022-11-09T01:00:16.582Z,97795.19
2022-11-09T01:05:20.046Z,97802.88
2022-11-09T01:10:26.316Z,97809.06
2022-11-09T01:15:30.312Z,97824.25
2022-11-09T01:20:33.061Z,97827.63
2022-11-09T01:25:38.208Z,97818.75
2022-11-09T01:30:42.926Z,97832.97
2022-11-09T01:35:45.675Z,97824.25
2022-11-09T01:40:49.870Z,97820.06
2022-11-09T01:45:56.406Z,97812.53
2022-11-09T01:51:04.135Z,97800.00
2022-11-09T01:56:14.647Z,97788.63
2022-11-09T02:01:18.774Z,97777.81
2022-11-09T02:06:26.149Z,97784.09
2022-11-09T02:11:31.254Z,97796.50
2022-11-09T02:16:35.324Z,97800.97
2022-11-09T02:21:39.490Z,97796.31
2022-11-09T02:26:46.670Z,97797.63
2022-11-09T02:31:54.490Z,97798.63
2022-11-09T02:36:58.884Z,97779.06
2022-11-09T02:42:09.843Z,97789.09
2022-11-09T02:47:13.502Z,97773.59
2022-11-09T02:52:18.167Z,97782.28
2022-11-09T02:57:21.879Z,97786.50
2022-11-09T03:02:26.389Z,97793.03
2022-11-09T03:07:30.580Z,97787.50
2022-11-09T03:12:33.758Z,97793.13
2022-11-09T03:17:42.287Z,97797.28
2022-11-09T03:22:46.807Z,97811.94
2022-11-09T03:27:49.779Z,97810.38
2022-11-09T03:32:59.327Z,97818.94
2022-11-09T03:38:03.624Z,97825.59
2022-11-09T03:43:06.691Z,97824.44
2022-11-09T03:48:10.050Z,97824.59
2022-11-09T03:53:14.620Z,97823.06
2022-11-09T03:58:17.426Z,97833.06
2022-11-09T04:03:20.372Z,97832.59
2022-11-09T04:08:24.726Z,97829.47
2022-11-09T04:20:10.821Z,97813.28
2022-11-09T04:25:15.005Z,97813.13
2022-11-09T04:30:17.851Z,97810.75
2022-11-09T04:35:20.669Z,97811.75
2022-11-09T04:40:26.343Z,97809.41
2022-11-09T04:45:29.283Z,97806.91
2022-11-09T04:50:32.569Z,97797.91
2022-11-09T04:55:37.017Z,97799.72
2022-11-09T05:00:40.870Z,97802.25
2022-11-09T05:05:48.115Z,97801.56
2022-11-09T05:10:52.849Z,97810.69
2022-11-09T05:15:55.638Z,97800.16
2022-11-09T05:20:59.805Z,97791.19
2022-11-09T05:26:03.926Z,97806.91
2022-11-09T05:31:07.243Z,97814.91
2022-11-09T05:36:10.282Z,97815.22
2022-11-09T05:41:15.102Z,97826.16
2022-11-09T05:46:18.964Z,97820.81
2022-11-09T05:51:21.694Z,97817.31
2022-11-09T05:56:25.938Z,97816.72
2022-11-09T06:01:28.669Z,97815.91
2022-11-09T06:06:31.477Z,97820.13
2022-11-09T06:11:35.604Z,97810.31
2022-11-09T06:16:38.438Z,97814.34
2022-11-09T06:21:41.437Z,97818.06
2022-11-09T06:26:45.618Z,97820.09
2022-11-09T06:31:48.977Z,97830.19
2022-11-09T06:36:51.835Z,97834.06
2022-11-09T06:41:55.964Z,97835.72
2022-11-09T06:46:58.832Z,97844.97
2022-11-09T06:52:01.638Z,97848.19
2022-11-09T06:57:05.856Z,97851.81
2022-11-09T07:02:09.977Z,97856.69
2022-11-09T07:07:13.013Z,97866.09
2022-11-09T07:12:17.525Z,97864.94
2022-11-09T07:17:20.722Z,97875.31
2022-11-09T07:22:23.621Z,97871.47
2022-11-09T07:27:28.531Z,97874.53
2022-11-09T07:33:07.526Z,97859.88
2022-11-09T07:38:01.286Z,97873.22
2022-11-09T07:43:06.114Z,97883.94
2022-11-09T07:48:11.247Z,97883.66
2022-11-09T07:53:16.108Z,97903.72
2022-11-09T07:58:20.363Z,97904.00
2022-11-09T08:03:25.784Z,97905.91
2022-11-09T08:08:28.609Z,97915.75
2022-11-09T08:13:32.726Z,97917.81
2022-11-09T08:18:35.683Z,97914.16
2022-11-09T08:23:38.496Z,97915.38
2022-11-09T08:28:42.690Z,97924.88
2022-11-09T08:33:45.527Z,97926.09
2022-11-09T08:38:51.046Z,97926.06
2022-11-09T08:43:55.226Z,97927.56
2022-11-09T08:48:58.010Z,97931.59
2022-11-09T08:54:00.797Z,97931.47
2022-11-09T08:59:05.008Z,97926.75
2022-11-09T09:04:07.785Z,97927.78
2022-11-09T09:09:10.683Z,97934.44
2022-11-09T09:14:15.689Z,97928.41
2022-11-09T09:19:19.222Z,97936.41
2022-11-09T09:24:22.305Z,97940.94
2022-11-09T09:29:26.487Z,97940.53
2022-11-09T09:34:29.315Z,97933.03
2022-11-09T09:39:32.182Z,97940.81
2022-11-09T09:44:42.452Z,97943.50
2022-11-09T09:49:49.027Z,97957.53
2022-11-09T09:54:59.212Z,97951.78
2022-11-09T10:00:08.234Z,97953.94
2022-11-09T10:05:17.199Z,97964.63
2022-11-09T10:10:44.399Z,97968.75
2022-11-09T10:15:53.778Z,97961.19
2022-11-09T10:21:10.941Z,97960.06
2022-11-09T10:26:19.982Z,97956.00
2022-11-09T10:31:24.928Z,97961.31
2022-11-09T10:36:34.493Z,97956.50
2022-11-09T10:41:41.554Z,97962.72
2022-11-09T10:47:08.044Z,97962.97
2022-11-09T10:52:44.198Z,97970.16
2022-11-09T10:58:24.224Z,97965.25
2022-11-09T11:03:51.532Z,97986.34
2022-11-09T11:09:17.715Z,97980.47
2022-11-09T11:14:44.579Z,97981.00
2022-11-09T11:20:29.193Z,97987.28
2022-11-09T11:26:04.546Z,97982.06
2022-11-09T11:31:26.058Z,97983.09
2022-11-09T11:37:00.190Z,97997.34
2022-11-09T11:42:46.448Z,97996.38
2022-11-09T11:48:46.953Z,98009.59
2022-11-09T11:54:20.929Z,98003.50
2022-11-09T12:00:04.985Z,98009.75
2022-11-09T12:05:46.488Z,98007.75
2022-11-09T12:11:16.809Z,98007.59
2022-11-09T12:16:47.326Z,98008.59
2022-11-09T12:22:17.971Z,98003.91
2022-11-09T12:27:55.965Z,98004.56
2022-11-09T12:33:23.050Z,98004.56
2022-11-09T12:38:53.557Z,97997.03
2022-11-09T12:44:21.094Z,98003.56
2022-11-09T12:49:44.264Z,98000.22
2022-11-09T12:55:06.486Z,98001.38
2022-11-09T13:00:50.995Z,97993.69
2022-11-09T13:06:18.495Z,98000.22
2022-11-09T13:11:43.093Z,97996.84
2022-11-09T13:17:52.978Z,97997.19
2022-11-09T13:29:26.375Z,97999.38
2022-11-09T13:34:51.965Z,98007.69
2022-11-09T13:40:42.375Z,98011.88
2022-11-09T13:46:05.936Z,98006.81
2022-11-09T13:51:46.037Z,98009.47
2022-11-09T13:57:08.542Z,98013.66
2022-11-09T14:02:29.953Z,98007.44
2022-11-09T14:07:54.625Z,98010.78
2022-11-09T14:13:30.838Z,98017.97
2022-11-09T14:19:04.832Z,98021.97
2022-11-09T14:24:30.810Z,98009.56
2022-11-09T14:29:55.151Z,98012.59
2022-11-09T14:35:25.120Z,98028.31
2022-11-09T14:40:49.896Z,98030.31
2022-11-09T14:46:17.502Z,98035.47
2022-11-09T14:51:40.815Z,98042.63
2022-11-09T14:57:03.990Z,98046.84
2022-11-09T15:02:26.943Z,98059.84
2022-11-09T15:07:48.978Z,98044.78
2022-11-09T15:13:11.887Z,98046.38
2022-11-09T15:18:36.736Z,98058.38
2022-11-09T15:24:06.377Z,98060.00
2022-11-09T15:29:36.254Z,98055.22
2022-11-09T15:35:00.188Z,98061.66
2022-11-09T15:40:24.332Z,98069.13
2022-11-09T15:45:47.091Z,98086.63
2022-11-09T15:51:08.406Z,98082.91
2022-11-09T15:56:30.045Z,98086.75
2022-11-09T16:01:53.263Z,98088.34
2022-11-09T16:07:16.677Z,98095.16
2022-11-09T16:12:42.509Z,98097.34
2022-11-09T16:18:09.053Z,98105.47
2022-11-09T16:23:30.943Z,98111.56
2022-11-09T16:28:52.447Z,98113.84
2022-11-09T16:34:16.041Z,98130.19
2022-11-09T16:39:37.928Z,98139.78
2022-11-09T16:45:06.270Z,98152.91
2022-11-09T16:50:29.515Z,98156.63
2022-11-09T16:55:51.029Z,98164.53
2022-11-09T17:01:13.958Z,98173.41
2022-11-09T17:06:39.308Z,98179.91
2022-11-09T17:12:01.050Z,98189.91
2022-11-09T17:17:23.082Z,98197.06
2022-11-09T17:22:46.486Z,98201.00
2022-11-09T17:28:08.694Z,98212.00
2022-11-09T17:33:30.057Z,98217.31
2022-11-09T17:38:53.930Z,98223.94
2022-11-09T17:44:17.064Z,98226.31
2022-11-09T17:49:38.626Z,98244.19
2022-11-09T17:55:01.747Z,98249.25
2022-11-09T18:00:23.423Z,98256.97
2022-11-09T18:05:45.890Z,98260.78
2022-11-09T18:11:08.989Z,98268.94
2022-11-09T18:16:30.584Z,98271.19
2022-11-09T18:21:52.179Z,98282.41
2022-11-09T18:27:15.129Z,98297.44
2022-11-09T18:32:36.340Z,98302.88
2022-11-09T18:37:57.854Z,98306.97
2022-11-09T18:43:20.476Z,98313.66
2022-11-09T18:48:41.921Z,98322.94
2022-11-09T18:54:03.620Z,98326.69
2022-11-09T18:59:26.530Z,98347.06
2022-11-09T19:04:48.327Z,98344.97
2022-11-09T19:10:10.508Z,98337.56
2022-11-09T19:15:35.032Z,98341.03
2022-11-09T19:20:56.849Z,98348.38
2022-11-09T19:26:18.587Z,98357.75
2022-11-09T19:31:43.206Z,98362.97
2022-11-09T19:37:04.523Z,98366.47
2022-11-09T19:42:26.138Z,98378.00
2022-11-09T19:47:50.813Z,98377.69
2022-11-09T19:53:12.357Z,98387.50
2022-11-09T19:58:33.629Z,98406.16
2022-11-09T20:03:58.497Z,98411.63
2022-11-09T20:09:19.769Z,98409.38
2022-11-09T20:14:41.096Z,98425.78
2022-11-09T20:20:04.233Z,98423.94
2022-11-09T20:25:25.772Z,98430.69
2022-11-09T20:30:47.509Z,98434.72
2022-11-09T20:36:10.613Z,98450.97
2022-11-09T20:41:32.794Z,98467.50
2022-11-09T20:46:54.569Z,98469.69
2022-11-09T20:52:17.332Z,98476.41
2022-11-09T20:57:38.690Z,98493.75
2022-11-09T21:03:00.453Z,98495.38
2022-11-09T21:08:23.462Z,98498.44
2022-11-09T21:13:46.058Z,98512.13
2022-11-09T21:19:07.683Z,98508.63
2022-11-09T21:24:48.036Z,98520.72
2022-11-09T21:30:10.629Z,98531.25
2022-11-09T21:35:32.259Z,98531.97
2022-11-09T21:40:54.966Z,98538.00
2022-11-09T21:46:16.457Z,98550.25
2022-11-09T21:51:39.645Z,98561.50
2022-11-09T21:57:02.490Z,98557.97
2022-11-09T22:02:23.818Z,98569.25
2022-11-09T22:07:45.231Z,98575.03
2022-11-09T22:13:28.299Z,98579.75
2022-11-09T22:19:07.886Z,98583.66
2022-11-09T22:24:29.400Z,98587.28
2022-11-09T22:29:52.426Z,98588.38
2022-11-09T22:35:13.832Z,98580.31
2022-11-09T22:40:36.028Z,98589.16
2022-11-09T22:46:03.934Z,98591.34
2022-11-09T22:51:25.261Z,98594.88
2022-11-09T22:56:46.769Z,98596.47
2022-11-09T23:02:09.533Z,98605.69
2022-11-09T23:07:31.002Z,98597.47
2022-11-09T23:12:52.548Z,98617.91
2022-11-09T23:18:32.737Z,98617.06
2022-11-09T23:23:56.483Z,98623.94
2022-11-09T23:29:18.234Z,98628.19
2022-11-09T23:34:40.940Z,98631.47
2022-11-09T23:40:02.724Z,98628.44
2022-11-09T23:45:23.963Z,98638.00
2022-11-09T23:50:48.059Z,98647.53
2022-11-09T23:56:11.462Z,98653.72
